Time;durP1;ratioP1;P1;durP2;ratioP2;P2;SDS_P1;SDS_P2;PMS_P1;PMS_P2;Temp;Humidity;BMP_temperature;BMP_pressure;BME280_temperature;BME280_humidity;BME280_pressure;Samples;Min_cycle;Max_cycle;Signal;HPM_P1;HPM_P2
2022/04/23 00:02:17;;;;;;;22.63;17.20;;;11.20;99.90;;;;;;5092750;28;20070;-49
2022/04/23 00:05:02;;;;;;;23.55;17.40;;;11.30;99.90;;;;;;5093197;28;20043;-48
2022/04/23 00:07:46;;;;;;;19.90;16.63;;;11.20;99.90;;;;;;5106492;28;20078;-50
2022/04/23 00:10:30;;;;;;;23.10;17.87;;;11.20;99.90;;;;;;5115532;27;20092;-48
2022/04/23 00:13:14;;;;;;;22.10;17.42;;;11.20;99.90;;;;;;5097032;27;20088;-50
2022/04/23 00:15:58;;;;;;;21.58;17.23;;;11.20;99.90;;;;;;5113272;27;20038;-53
2022/04/23 00:18:43;;;;;;;21.48;16.17;;;11.10;99.90;;;;;;5105102;28;20026;-49
2022/04/23 00:21:27;;;;;;;20.48;16.05;;;11.00;99.90;;;;;;5088929;28;20046;-49
2022/04/23 00:24:12;;;;;;;21.33;16.40;;;11.10;99.90;;;;;;5106423;27;20408;-50
2022/04/23 00:26:56;;;;;;;19.85;15.65;;;11.00;99.90;;;;;;5115796;27;20026;-48
2022/04/23 00:29:42;;;;;;;23.85;17.17;;;11.00;99.90;;;;;;5106328;28;20054;-51
2022/04/23 00:32:26;;;;;;;20.80;16.25;;;10.90;99.90;;;;;;5095447;28;20074;-49
2022/04/23 00:35:18;;;;;;;20.03;16.13;;;10.90;99.90;;;;;;5114806;27;20037;-50
2022/04/23 00:38:02;;;;;;;20.80;16.52;;;10.90;99.90;;;;;;5107079;28;20510;-49
2022/04/23 00:40:47;;;;;;;;;;;10.80;99.90;;;;;;5109004;28;20562;-48
2022/04/23 00:43:35;;;;;;;19.05;15.70;;;10.70;99.90;;;;;;5100907;28;19968;-49
2022/04/23 00:46:20;;;;;;;21.25;16.08;;;10.60;99.90;;;;;;5110208;28;20074;-47
2022/04/23 00:49:06;;;;;;;20.40;15.63;;;10.60;99.90;;;;;;5112395;28;20031;-49
2022/04/23 00:51:51;;;;;;;17.65;15.07;;;10.60;99.90;;;;;;5112992;27;20070;-51
2022/04/23 00:54:36;;;;;;;18.73;15.05;;;10.50;99.90;;;;;;5090843;28;20581;-51
2022/04/23 00:57:20;;;;;;;19.17;14.38;;;10.40;99.90;;;;;;5092222;28;20129;-53
2022/04/23 01:00:06;;;;;;;17.67;14.45;;;10.40;99.90;;;;;;5092494;28;20043;-52
2022/04/23 01:02:54;;;;;;;20.17;15.65;;;10.30;99.90;;;;;;5100213;28;20042;-51
2022/04/23 01:05:46;;;;;;;18.58;14.63;;;10.30;99.90;;;;;;5120792;27;20038;-49
2022/04/23 01:08:31;;;;;;;19.80;15.15;;;10.30;99.90;;;;;;5090846;28;20400;-53
2022/04/23 01:11:15;;;;;;;;;;;10.10;99.90;;;;;;5091930;28;20047;-52
2022/04/23 01:14:01;;;;;;;20.13;14.15;;;10.10;99.90;;;;;;5091697;28;19969;-55
2022/04/23 01:16:45;;;;;;;17.60;14.32;;;10.00;99.90;;;;;;5092217;28;20403;-54
2022/04/23 01:19:29;;;;;;;16.97;13.53;;;10.00;99.90;;;;;;5094295;28;20561;-53
2022/04/23 01:22:13;;;;;;;18.27;13.98;;;10.00;99.90;;;;;;5112317;28;20035;-53
2022/04/23 01:24:58;;;;;;;16.87;13.77;;;9.90;99.90;;;;;;5106487;28;20058;-51
2022/04/23 01:27:45;;;;;;;16.83;13.10;;;9.90;99.90;;;;;;5092309;28;20328;-50
2022/04/23 01:30:30;;;;;;;15.50;13.45;;;9.80;99.90;;;;;;5100650;28;20468;-49
2022/04/23 01:33:14;;;;;;;16.75;13.38;;;9.70;99.90;;;;;;5108459;28;20344;-53
2022/04/23 01:35:58;;;;;;;19.10;14.98;;;9.70;99.90;;;;;;5117568;28;20053;-54
2022/04/23 01:38:43;;;;;;;17.17;13.77;;;9.60;99.90;;;;;;5125255;28;20154;-55
2022/04/23 01:41:27;;;;;;;15.93;12.80;;;9.50;99.90;;;;;;5113161;28;20509;-48
2022/04/23 01:44:11;;;;;;;16.83;12.93;;;9.50;99.90;;;;;;5121648;28;20092;-49
2022/04/23 01:46:56;;;;;;;14.98;12.63;;;9.50;99.90;;;;;;5096389;28;20038;-49
2022/04/23 01:49:41;;;;;;;14.10;12.13;;;9.60;99.90;;;;;;5098885;28;20047;-51
2022/04/23 01:52:25;;;;;;;;;;;9.50;99.90;;;;;;5092055;28;20042;-52
2022/04/23 01:55:09;;;;;;;14.10;12.68;;;9.40;99.90;;;;;;5108920;28;20011;-51
2022/04/23 01:57:53;;;;;;;14.03;12.03;;;9.40;99.90;;;;;;5112512;28;20034;-51
2022/04/23 02:00:37;;;;;;;13.73;12.25;;;9.40;99.90;;;;;;5103249;28;20031;-52
2022/04/23 02:03:22;;;;;;;15.50;12.50;;;9.50;99.90;;;;;;5132867;27;20443;-55
2022/04/23 02:06:06;;;;;;;14.23;12.60;;;9.40;99.90;;;;;;5132890;27;20034;-47
2022/04/23 02:08:50;;;;;;;14.88;12.10;;;9.40;99.90;;;;;;5128223;27;20560;-47
2022/04/23 02:11:34;;;;;;;15.30;13.05;;;9.20;99.90;;;;;;5115140;28;20092;-50
2022/04/23 02:14:18;;;;;;;17.05;13.57;;;9.10;99.90;;;;;;5113333;28;20038;-50
2022/04/23 02:17:03;;;;;;;16.52;14.40;;;9.10;99.90;;;;;;5099435;28;20198;-49
2022/04/23 02:19:47;;;;;;;14.13;12.63;;;9.10;99.90;;;;;;5105279;28;20042;-48
2022/04/23 02:22:31;;;;;;;15.88;13.60;;;9.10;99.90;;;;;;5094720;28;20392;-50
2022/04/23 02:25:16;;;;;;;13.98;12.55;;;9.10;99.90;;;;;;5092624;28;20050;-48
2022/04/23 02:28:00;;;;;;;;;;;9.10;99.90;;;;;;5114446;28;20080;-48
2022/04/23 02:30:44;;;;;;;16.35;13.75;;;9.00;99.90;;;;;;5114958;28;19917;-50
2022/04/23 02:33:28;;;;;;;15.43;13.63;;;8.90;99.90;;;;;;5107119;28;20502;-49
2022/04/23 02:36:15;;;;;;;14.70;13.07;;;8.90;99.90;;;;;;5113138;28;20097;-53
2022/04/23 02:39:01;;;;;;;16.85;13.77;;;8.80;99.90;;;;;;5114751;28;20033;-54
2022/04/23 02:41:45;;;;;;;15.18;13.57;;;8.70;99.90;;;;;;5103695;27;20605;-48
2022/04/23 02:44:29;;;;;;;16.00;14.30;;;8.80;99.90;;;;;;5103280;28;20177;-51
2022/04/23 02:47:14;;;;;;;16.38;13.93;;;8.60;99.90;;;;;;5099302;28;20168;-48
2022/04/23 02:49:58;;;;;;;16.50;13.75;;;8.60;99.90;;;;;;5096167;28;20051;-47
2022/04/23 02:52:43;;;;;;;16.80;14.68;;;8.60;99.90;;;;;;5094475;28;20404;-48
2022/04/23 02:55:30;;;;;;;15.77;14.10;;;8.60;99.90;;;;;;5094452;28;20591;-52
2022/04/23 02:58:14;;;;;;;15.82;13.88;;;8.50;99.90;;;;;;5109728;28;20030;-48
2022/04/23 03:00:58;;;;;;;18.08;14.90;;;8.50;99.90;;;;;;5114822;28;20178;-51
2022/04/23 03:03:43;;;;;;;17.75;14.70;;;8.50;99.90;;;;;;5095386;28;20046;-49
2022/04/23 03:06:28;;;;;;;;;;;8.40;99.90;;;;;;5094399;28;20031;-47
2022/04/23 03:09:13;;;;;;;17.55;15.48;;;8.40;99.90;;;;;;5099163;28;19950;-53
2022/04/23 03:11:57;;;;;;;16.80;15.02;;;8.40;99.90;;;;;;5110378;28;20043;-51
2022/04/23 03:14:43;;;;;;;17.73;15.25;;;8.30;99.90;;;;;;5094110;28;20498;-50
2022/04/23 03:17:27;;;;;;;17.02;15.23;;;8.30;99.90;;;;;;5100412;28;20089;-50
2022/04/23 03:20:12;;;;;;;17.83;15.38;;;8.20;99.90;;;;;;5113938;28;20110;-51
2022/04/23 03:22:57;;;;;;;17.48;15.73;;;8.20;99.90;;;;;;5110857;28;20548;-49
2022/04/23 03:25:41;;;;;;;17.33;15.48;;;8.20;99.90;;;;;;5110386;28;20058;-46
2022/04/23 03:28:25;;;;;;;19.95;15.43;;;8.10;99.90;;;;;;5078414;28;20035;-49
2022/04/23 03:31:09;;;;;;;18.25;15.40;;;8.10;99.90;;;;;;5100562;28;20125;-48
2022/04/23 03:33:53;;;;;;;17.97;16.17;;;8.10;99.90;;;;;;5113561;28;20096;-48
2022/04/23 03:36:39;;;;;;;19.02;17.02;;;8.10;99.90;;;;;;5107048;27;20669;-49
2022/04/23 03:39:23;;;;;;;19.05;17.00;;;8.00;99.90;;;;;;5114051;28;20026;-51
2022/04/23 03:42:07;;;;;;;18.38;16.45;;;8.00;99.90;;;;;;5116198;27;20042;-49
2022/04/23 03:44:51;;;;;;;18.92;16.02;;;8.00;99.90;;;;;;5113241;28;20038;-48
2022/04/23 03:47:36;;;;;;;19.73;16.47;;;8.00;99.90;;;;;;5112651;28;20042;-51
2022/04/23 03:50:20;;;;;;;18.38;16.42;;;7.90;99.90;;;;;;5112855;28;20030;-50
2022/04/23 03:53:04;;;;;;;18.40;16.58;;;8.00;99.90;;;;;;5077276;28;20043;-50
2022/04/23 03:55:48;;;;;;;19.20;16.67;;;8.00;99.90;;;;;;5106523;28;20038;-51
2022/04/23 03:58:33;;;;;;;19.47;16.90;;;8.00;99.90;;;;;;5113078;28;20043;-51
2022/04/23 04:01:17;;;;;;;20.10;17.15;;;7.90;99.90;;;;;;5079958;28;20086;-53
2022/04/23 04:04:01;;;;;;;19.67;17.57;;;7.90;99.90;;;;;;5092291;28;20051;-52
2022/04/23 04:06:45;;;;;;;19.15;17.13;;;7.80;99.90;;;;;;5092172;28;20272;-50
2022/04/23 04:09:29;;;;;;;19.27;16.92;;;7.90;99.90;;;;;;5093841;28;20515;-51
2022/04/23 04:12:13;;;;;;;21.00;17.40;;;7.90;99.90;;;;;;5112613;28;20035;-52
2022/04/23 04:14:58;;;;;;;19.37;17.33;;;7.80;99.90;;;;;;5095489;28;20039;-50
2022/04/23 04:17:44;;;;;;;21.75;18.10;;;7.70;99.90;;;;;;5092284;28;20364;-51
2022/04/23 04:20:32;;;;;;;19.83;17.52;;;7.80;99.90;;;;;;5092918;28;20047;-52
2022/04/23 04:23:17;;;;;;;19.83;17.80;;;7.80;99.90;;;;;;5093158;28;20038;-53
2022/04/23 04:26:01;;;;;;;21.20;18.25;;;7.90;99.90;;;;;;5092003;28;20031;-53
2022/04/23 04:28:45;;;;;;;21.23;18.55;;;7.90;99.90;;;;;;5092391;28;20131;-48
2022/04/23 04:31:47;;;;;;;21.00;18.73;;;7.90;99.90;;;;;;5092532;28;20039;-48
2022/04/23 04:34:31;;;;;;;21.10;18.80;;;8.00;99.90;;;;;;5092531;28;20396;-48
2022/04/23 04:37:16;;;;;;;21.52;18.65;;;8.00;99.90;;;;;;5106843;28;20039;-50
2022/04/23 04:40:00;;;;;;;21.07;18.77;;;8.10;99.90;;;;;;5112600;28;20031;-49
2022/04/23 04:42:44;;;;;;;20.80;18.60;;;8.10;99.90;;;;;;5117765;27;20334;-51
2022/04/23 04:45:28;;;;;;;21.42;18.25;;;8.10;99.90;;;;;;5112134;28;20288;-48
2022/04/23 04:48:12;;;;;;;25.27;19.70;;;8.20;99.90;;;;;;5091399;28;20043;-51
2022/04/23 04:50:56;;;;;;;20.37;18.23;;;8.30;99.90;;;;;;5079034;28;20055;-51
2022/04/23 04:53:40;;;;;;;21.55;19.25;;;8.30;99.90;;;;;;5111679;28;20055;-47
2022/04/23 04:56:25;;;;;;;21.70;19.33;;;8.40;99.90;;;;;;5105611;28;20119;-49
2022/04/23 04:59:09;;;;;;;22.88;19.80;;;8.40;99.90;;;;;;5091853;28;20042;-49
2022/04/23 05:01:53;;;;;;;22.80;19.73;;;8.40;99.90;;;;;;5107035;28;20560;-51
2022/04/23 05:04:37;;;;;;;22.33;18.43;;;8.40;99.90;;;;;;5099372;28;20071;-53
2022/04/23 05:07:21;;;;;;;21.52;19.33;;;8.30;99.90;;;;;;5111402;28;20127;-52
2022/04/23 05:10:06;;;;;;;22.60;20.13;;;8.40;99.90;;;;;;5077693;28;20047;-53
2022/04/23 05:12:50;;;;;;;23.00;20.10;;;8.40;99.90;;;;;;5091370;28;20035;-52
2022/04/23 05:15:35;;;;;;;22.23;20.00;;;8.50;99.90;;;;;;5076029;28;20051;-54
2022/04/23 05:18:19;;;;;;;;;;;8.60;99.90;;;;;;5092189;28;20072;-52
2022/04/23 05:21:04;;;;;;;22.20;17.90;;;8.60;99.90;;;;;;5094888;28;20286;-51
2022/04/23 05:23:48;;;;;;;23.90;20.00;;;8.60;99.90;;;;;;5111765;28;20116;-52
2022/04/23 05:26:32;;;;;;;21.50;19.20;;;8.70;99.90;;;;;;5104863;28;20046;-51
2022/04/23 05:29:16;;;;;;;25.70;20.00;;;8.80;99.90;;;;;;5097094;28;20059;-51
2022/04/23 05:32:00;;;;;;;23.90;20.00;;;8.80;99.90;;;;;;5111641;28;20125;-52
2022/04/23 05:34:45;;;;;;;20.87;18.67;;;8.80;99.90;;;;;;5101928;28;20036;-48
2022/04/23 05:37:29;;;;;;;23.58;20.33;;;8.80;99.90;;;;;;5105307;28;20137;-52
2022/04/23 05:40:14;;;;;;;23.00;19.38;;;8.90;99.90;;;;;;5111901;28;20057;-55
2022/04/23 05:42:58;;;;;;;22.45;20.00;;;8.90;99.90;;;;;;5115527;28;20098;-52
2022/04/23 05:45:44;;;;;;;22.83;19.95;;;8.90;99.90;;;;;;5114462;28;20050;-46
2022/04/23 05:48:29;;;;;;;22.17;19.75;;;8.80;99.90;;;;;;5102912;28;20097;-48
2022/04/23 05:51:13;;;;;;;23.57;20.53;;;8.90;99.90;;;;;;5095357;28;20043;-51
2022/04/23 05:53:57;;;;;;;23.77;21.17;;;9.00;99.90;;;;;;5110620;28;20038;-52
2022/04/23 05:56:41;;;;;;;23.95;20.92;;;9.00;99.90;;;;;;5096436;28;20031;-49
2022/04/23 05:59:28;;;;;;;24.05;21.45;;;9.00;99.90;;;;;;5115373;28;20047;-51
2022/04/23 06:02:13;;;;;;;24.27;20.13;;;9.00;99.90;;;;;;5108310;28;20127;-46
2022/04/23 06:04:58;;;;;;;23.88;20.08;;;9.20;99.90;;;;;;5095025;28;20454;-50
2022/04/23 06:07:43;;;;;;;23.02;19.67;;;9.30;99.90;;;;;;5111884;28;20123;-48
2022/04/23 06:10:27;;;;;;;21.40;19.13;;;9.40;99.90;;;;;;5116349;28;20472;-50
2022/04/23 06:13:11;;;;;;;21.10;18.88;;;9.50;99.90;;;;;;5095963;28;20085;-51
2022/04/23 06:15:56;;;;;;;21.75;18.85;;;9.40;99.90;;;;;;5094853;28;20116;-50
2022/04/23 06:18:40;;;;;;;22.08;19.48;;;9.40;99.90;;;;;;5115492;28;20030;-53
2022/04/23 06:21:24;;;;;;;22.88;18.23;;;9.50;99.90;;;;;;5111237;28;20532;-51
2022/04/23 06:24:08;;;;;;;22.10;18.70;;;9.50;99.90;;;;;;5095273;28;20063;-49
2022/04/23 06:26:52;;;;;;;19.38;17.38;;;9.60;99.90;;;;;;5086165;28;20529;-55
2022/04/23 06:29:38;;;;;;;18.67;16.75;;;9.70;99.90;;;;;;5115950;28;20089;-51
2022/04/23 06:32:22;;;;;;;20.33;17.98;;;9.90;99.90;;;;;;5095665;28;20101;-52
2022/04/23 06:35:07;;;;;;;20.05;17.95;;;10.00;99.90;;;;;;5095412;28;20114;-49
2022/04/23 06:37:51;;;;;;;;;;;10.00;99.90;;;;;;5112893;28;20082;-52
2022/04/23 06:40:35;;;;;;;19.42;17.33;;;10.00;99.90;;;;;;5104792;28;19981;-54
2022/04/23 06:43:20;;;;;;;19.13;16.50;;;10.10;99.50;;;;;;5100430;27;20039;-53
2022/04/23 06:46:04;;;;;;;21.42;19.08;;;10.00;99.40;;;;;;5108002;28;20050;-49
2022/04/23 06:48:48;;;;;;;21.52;18.10;;;10.20;99.10;;;;;;5115376;28;20034;-51
2022/04/23 06:51:33;;;;;;;18.85;16.98;;;10.20;99.30;;;;;;5097054;28;20117;-53
2022/04/23 06:54:17;;;;;;;20.15;17.85;;;10.30;99.40;;;;;;5094775;28;20051;-55
2022/04/23 06:57:01;;;;;;;19.65;15.98;;;10.30;99.00;;;;;;5104883;27;20031;-54
2022/04/23 06:59:46;;;;;;;19.38;17.17;;;10.40;98.70;;;;;;5115618;28;20440;-57
2022/04/23 07:02:30;;;;;;;18.15;16.23;;;10.50;98.50;;;;;;5114780;28;20449;-54
2022/04/23 07:05:14;;;;;;;18.53;16.67;;;10.40;98.20;;;;;;5081451;28;20505;-54
2022/04/23 07:08:01;;;;;;;18.92;16.90;;;10.50;98.40;;;;;;5064947;28;20478;-53
2022/04/23 07:10:46;;;;;;;20.00;16.13;;;10.40;98.20;;;;;;5094279;28;20731;-53
2022/04/23 07:13:30;;;;;;;16.70;14.98;;;10.50;97.90;;;;;;5099272;28;20387;-52
2022/04/23 07:16:16;;;;;;;18.02;15.60;;;10.50;98.00;;;;;;5114185;28;20131;-52
2022/04/23 07:19:00;;;;;;;17.48;15.32;;;10.60;97.70;;;;;;5114063;28;20529;-55
2022/04/23 07:21:44;;;;;;;16.90;14.30;;;10.80;97.20;;;;;;5098893;28;20039;-55
2022/04/23 07:24:28;;;;;;;16.43;14.73;;;10.90;96.70;;;;;;5102235;28;20581;-51
2022/04/23 07:27:13;;;;;;;21.50;18.07;;;11.10;97.10;;;;;;5112728;28;20121;-53
2022/04/23 07:29:57;;;;;;;19.77;15.25;;;11.30;96.50;;;;;;5113948;28;20104;-53
2022/04/23 07:32:41;;;;;;;15.13;13.57;;;11.20;96.30;;;;;;5133281;27;20479;-51
2022/04/23 07:38:28;;;;;;;16.23;13.35;;;11.60;95.10;;;;;;5109583;27;20081;-49
2022/04/23 07:41:12;;;;;;;12.93;11.60;;;11.30;94.80;;;;;;5096551;28;20034;-51
2022/04/23 07:43:57;;;;;;;14.68;13.18;;;11.30;94.90;;;;;;5112644;28;20747;-47
2022/04/23 07:46:41;;;;;;;14.07;11.30;;;11.30;94.30;;;;;;5107138;28;20408;-50
2022/04/23 07:49:25;;;;;;;12.82;11.50;;;11.20;94.10;;;;;;5093289;28;20420;-55
2022/04/23 07:52:09;;;;;;;12.90;11.57;;;11.10;93.90;;;;;;5093657;28;20078;-50
2022/04/23 07:54:54;;;;;;;12.90;11.60;;;11.10;93.90;;;;;;5092880;28;20094;-51
2022/04/23 07:57:38;;;;;;;12.50;11.20;;;11.40;93.60;;;;;;5105327;28;20035;-53
2022/04/23 08:00:22;;;;;;;12.68;11.00;;;11.50;93.40;;;;;;5113583;28;20460;-51
2022/04/23 08:03:06;;;;;;;11.03;9.83;;;11.50;93.00;;;;;;5098276;28;20120;-49
2022/04/23 08:05:51;;;;;;;;;;;11.60;92.70;;;;;;5093160;28;20107;-52
2022/04/23 08:08:36;;;;;;;14.73;10.65;;;11.80;92.30;;;;;;5111334;28;19923;-52
2022/04/23 08:11:22;;;;;;;11.35;10.10;;;11.70;92.30;;;;;;5113887;28;20030;-49
2022/04/23 08:14:06;;;;;;;10.82;9.70;;;11.60;92.00;;;;;;5092890;28;20039;-52
2022/04/23 08:16:50;;;;;;;13.40;10.63;;;11.90;91.80;;;;;;5098418;28;20047;-48
2022/04/23 08:19:34;;;;;;;9.87;8.90;;;12.00;91.50;;;;;;5113123;28;20081;-47
2022/04/23 08:22:19;;;;;;;10.82;9.32;;;11.90;91.30;;;;;;5100508;28;20281;-53
2022/04/23 08:25:03;;;;;;;11.15;9.55;;;12.00;91.20;;;;;;5092796;28;20470;-51
2022/04/23 08:30:34;;;;;;;10.85;9.77;;;11.90;90.50;;;;;;5107415;28;20046;-50
2022/04/23 08:31:03;;;;;;;13.10;9.82;;;11.90;90.70;;;;;;5111273;28;20596;-55
2022/04/23 08:33:59;;;;;;;10.38;8.85;;;11.90;90.80;;;;;;5091263;28;20130;-54
2022/04/23 08:36:43;;;;;;;11.68;9.55;;;12.00;90.70;;;;;;5106860;28;20035;-50
2022/04/23 08:39:27;;;;;;;9.85;8.52;;;12.00;90.40;;;;;;5111891;28;20556;-51
2022/04/23 08:42:11;;;;;;;9.93;8.67;;;12.10;90.10;;;;;;5118724;28;20095;-49
2022/04/23 08:44:56;;;;;;;12.20;8.40;;;12.10;89.70;;;;;;5114123;28;20050;-53
2022/04/23 08:47:44;;;;;;;11.77;8.38;;;12.20;89.00;;;;;;5099717;28;20530;-51
2022/04/23 08:50:28;;;;;;;8.25;7.38;;;12.30;88.60;;;;;;5091731;28;20039;-51
2022/04/23 08:53:26;;;;;;;8.30;7.45;;;12.40;87.40;;;;;;5107386;28;20034;-52
2022/04/23 08:56:11;;;;;;;9.93;7.90;;;12.30;87.00;;;;;;5096382;28;20053;-52
2022/04/23 08:58:56;;;;;;;9.13;8.15;;;12.30;86.40;;;;;;5091774;28;20042;-53
2022/04/23 09:01:41;;;;;;;9.40;8.18;;;12.40;86.80;;;;;;5104898;28;20081;-50
2022/04/23 09:04:25;;;;;;;10.50;7.78;;;12.40;86.00;;;;;;5111685;28;20027;-54
2022/04/23 09:07:24;;;;;;;9.27;8.27;;;12.40;86.30;;;;;;5094055;28;20039;-52
2022/04/23 09:10:08;;;;;;;15.75;8.70;;;12.70;85.40;;;;;;5092672;28;20403;-52
2022/04/23 09:12:58;;;;;;;9.00;7.50;;;12.60;84.40;;;;;;5097157;28;20540;-48
2022/04/23 09:24:56;;;;;;;7.88;6.72;;;13.00;83.40;;;;;;5090415;28;20559;-50
2022/04/23 09:27:42;;;;;;;9.23;7.72;;;12.90;83.70;;;;;;5110864;28;20105;-52
2022/04/23 09:30:35;;;;;;;11.20;7.20;;;13.10;83.00;;;;;;5097675;28;115923;-52
2022/04/23 09:33:27;;;;;;;13.27;7.95;;;13.50;82.00;;;;;;5086466;28;20093;-50
2022/04/23 09:36:12;;;;;;;9.25;7.50;;;13.50;80.80;;;;;;5102282;28;20031;-50
2022/04/23 09:39:03;;;;;;;10.68;8.85;;;13.50;81.40;;;;;;5103862;28;20090;-49
2022/04/23 09:41:47;;;;;;;10.38;8.32;;;13.70;81.40;;;;;;5117637;28;20130;-54
2022/04/23 09:44:31;;;;;;;11.33;9.03;;;13.60;82.10;;;;;;5108366;28;20038;-53
2022/04/23 09:47:31;;;;;;;10.77;9.27;;;13.50;83.00;;;;;;5116093;28;20422;-55
2022/04/23 09:50:16;;;;;;;11.52;9.18;;;13.30;82.90;;;;;;5091903;28;20092;-49
2022/04/23 09:53:08;;;;;;;10.13;9.13;;;13.20;83.30;;;;;;5091593;28;20066;-50
2022/04/23 09:55:53;;;;;;;9.57;8.57;;;13.10;83.60;;;;;;5091102;28;20304;-54
2022/04/23 09:58:39;;;;;;;12.27;9.07;;;13.10;83.60;;;;;;5092380;28;20510;-54
2022/04/23 10:01:24;;;;;;;10.27;9.20;;;13.40;83.40;;;;;;5117746;28;20034;-51
2022/04/23 10:04:09;;;;;;;10.55;8.73;;;13.30;82.90;;;;;;5118456;28;20483;-54
2022/04/23 10:06:57;;;;;;;10.90;9.23;;;13.40;83.40;;;;;;5092461;28;20062;-47
2022/04/23 10:09:45;;;;;;;9.80;8.88;;;13.60;83.50;;;;;;5088271;28;20389;-51
2022/04/23 10:12:33;;;;;;;10.45;9.25;;;13.90;82.10;;;;;;5132228;27;20046;-53
2022/04/23 10:15:17;;;;;;;10.07;8.93;;;14.00;81.40;;;;;;5119182;28;20839;-51
2022/04/23 10:18:02;;;;;;;11.82;9.68;;;13.90;81.80;;;;;;5111287;28;20119;-50
2022/04/23 10:20:55;;;;;;;15.43;10.15;;;13.90;82.00;;;;;;5096470;28;20059;-52
2022/04/23 10:24:03;;;;;;;9.38;8.05;;;14.10;81.50;;;;;;5091137;28;20090;-53
2022/04/23 10:26:56;;;;;;;11.23;8.68;;;14.10;81.20;;;;;;5090896;28;20078;-51
2022/04/23 10:29:41;;;;;;;13.13;9.13;;;14.10;81.20;;;;;;5107458;28;20031;-52
2022/04/23 10:32:25;;;;;;;;;;;14.20;80.10;;;;;;5111119;28;20038;-53
2022/04/23 10:35:19;;;;;;;8.80;7.88;;;14.30;80.00;;;;;;5094347;28;19958;-54
2022/04/23 10:38:19;;;;;;;9.82;8.13;;;14.30;79.30;;;;;;5116178;27;20126;-50
2022/04/23 10:41:04;;;;;;;11.55;8.00;;;14.20;79.10;;;;;;5135629;27;20053;-54
2022/04/23 10:43:59;;;;;;;9.05;7.88;;;14.20;79.40;;;;;;5096779;28;20104;-51
2022/04/23 10:46:44;;;;;;;;;;;14.30;78.50;;;;;;5094055;28;20081;-53
2022/04/23 10:49:28;;;;;;;8.17;7.37;;;14.20;78.30;;;;;;5101608;27;19955;-53
2022/04/23 10:52:35;;;;;;;12.07;7.38;;;14.30;78.00;;;;;;5134596;27;20084;-53
2022/04/23 10:55:29;;;;;;;9.38;7.53;;;14.40;77.00;;;;;;5103653;28;20089;-56
2022/04/23 10:58:24;;;;;;;9.95;8.02;;;14.60;77.30;;;;;;5114415;28;20027;-51
2022/04/23 11:01:25;;;;;;;9.30;8.02;;;14.60;78.20;;;;;;5114151;28;20034;-49
2022/04/23 11:04:10;;;;;;;9.63;7.57;;;14.80;77.90;;;;;;5114424;28;20031;-50
2022/04/23 11:13:27;;;;;;;10.00;8.55;;;15.10;76.60;;;;;;5133758;27;20522;-55
2022/04/23 11:16:13;;;;;;;8.98;7.88;;;15.40;76.60;;;;;;5110129;27;20388;-54
2022/04/23 11:19:00;;;;;;;10.85;7.95;;;15.40;75.00;;;;;;5113937;27;20081;-57
2022/04/23 11:21:45;;;;;;;7.60;6.80;;;15.10;75.60;;;;;;5096628;28;20042;-56
2022/04/23 11:24:30;;;;;;;8.57;7.60;;;15.20;75.80;;;;;;5111646;28;20038;-53
2022/04/23 11:27:28;;;;;;;9.07;7.25;;;15.20;75.70;;;;;;5097064;28;20064;-56
2022/04/23 11:30:13;;;;;;;7.32;6.35;;;15.40;74.80;;;;;;5110805;28;20054;-56
2022/04/23 11:33:10;;;;;;;6.40;5.80;;;15.40;74.00;;;;;;5111597;28;20030;-53
2022/04/23 11:35:57;;;;;;;11.90;6.55;;;15.40;73.60;;;;;;5111452;27;20042;-51
2022/04/23 11:38:42;;;;;;;7.00;5.90;;;15.50;74.10;;;;;;5111041;28;20475;-51
2022/04/23 11:41:26;;;;;;;8.15;6.65;;;15.60;73.90;;;;;;5110443;28;20081;-55
2022/04/23 11:44:12;;;;;;;7.33;6.57;;;15.50;74.00;;;;;;5111517;28;20035;-53
2022/04/23 11:46:56;;;;;;;7.28;6.53;;;15.60;73.80;;;;;;5095826;28;20093;-51
2022/04/23 11:49:40;;;;;;;6.60;6.00;;;15.80;74.10;;;;;;5111107;28;20149;-56
2022/04/23 11:52:25;;;;;;;5.97;5.25;;;15.80;73.90;;;;;;5112567;28;20515;-52
2022/04/23 11:55:24;;;;;;;6.30;5.70;;;16.00;73.00;;;;;;5112540;28;20042;-51
2022/04/23 11:58:08;;;;;;;7.88;6.20;;;16.00;72.60;;;;;;5112992;28;20054;-52
2022/04/23 12:00:52;;;;;;;7.10;6.40;;;15.90;72.30;;;;;;5103187;28;20054;-56
2022/04/23 12:03:36;;;;;;;7.03;6.28;;;15.60;73.20;;;;;;5090261;28;20101;-52
2022/04/23 12:06:24;;;;;;;6.15;5.55;;;15.60;73.70;;;;;;5088389;27;20038;-59
2022/04/23 12:09:08;;;;;;;7.57;5.95;;;15.90;74.10;;;;;;5133693;27;20148;-52
2022/04/23 12:11:59;;;;;;;6.75;6.07;;;16.30;73.60;;;;;;5113489;27;20039;-57
2022/04/23 12:14:45;;;;;;;6.82;5.85;;;16.20;71.90;;;;;;5111247;28;20035;-57
2022/04/23 12:17:31;;;;;;;7.35;6.03;;;16.20;72.60;;;;;;5112442;28;20192;-53
2022/04/23 12:20:26;;;;;;;7.28;6.05;;;16.20;72.10;;;;;;5108590;28;20474;-52
2022/04/23 12:23:11;;;;;;;6.57;5.97;;;16.40;71.40;;;;;;5111695;28;20051;-53
2022/04/23 12:26:08;;;;;;;6.28;5.68;;;16.70;72.20;;;;;;5110719;28;20050;-55
2022/04/23 12:40:58;;;;;;;8.70;6.95;;;16.90;70.50;;;;;;5111788;28;20038;-52
2022/04/23 12:43:45;;;;;;;11.48;7.93;;;16.90;70.20;;;;;;5111015;28;20046;-54
2022/04/23 12:46:30;;;;;;;8.13;7.20;;;17.00;70.20;;;;;;5110171;28;20027;-54
2022/04/23 12:49:14;;;;;;;7.88;7.18;;;17.10;68.60;;;;;;5095980;28;20039;-55
2022/04/23 12:51:58;;;;;;;10.15;7.72;;;17.00;69.20;;;;;;5111247;28;20692;-58
2022/04/23 12:55:14;;;;;;;7.43;6.32;;;17.10;69.30;;;;;;5111608;28;20506;-56
2022/04/23 12:58:08;;;;;;;7.32;6.57;;;17.10;68.30;;;;;;5111896;27;20386;-55
2022/04/23 13:00:53;;;;;;;11.47;8.90;;;17.10;68.20;;;;;;5110770;28;20396;-54
2022/04/23 13:03:42;;;;;;;9.65;6.32;;;17.20;69.10;;;;;;5111148;28;20049;-53
2022/04/23 13:09:30;;;;;;;10.27;9.05;;;17.60;68.90;;;;;;5096945;28;20602;-55
2022/04/23 13:12:14;;;;;;;18.23;14.73;;;18.10;67.00;;;;;;5108638;28;20034;-50
2022/04/23 13:14:58;;;;;;;9.03;8.17;;;17.90;67.10;;;;;;5095388;28;20035;-52
2022/04/23 13:17:43;;;;;;;7.13;6.40;;;17.90;67.20;;;;;;5111563;28;20391;-54
2022/04/23 13:20:27;;;;;;;10.07;7.07;;;18.00;66.70;;;;;;5109038;28;20477;-54
2022/04/23 13:23:15;;;;;;;7.93;6.90;;;18.20;66.30;;;;;;5111005;28;20030;-51
2022/04/23 13:25:59;;;;;;;5.90;5.40;;;18.40;65.10;;;;;;5110025;28;20062;-54
2022/04/23 13:28:44;;;;;;;7.47;6.03;;;18.30;64.20;;;;;;5110194;28;20093;-52
2022/04/23 13:31:28;;;;;;;;;;;18.20;65.00;;;;;;5110927;28;20067;-55
2022/04/23 13:34:12;;;;;;;6.25;5.07;;;18.40;63.90;;;;;;5093790;28;19934;-53
2022/04/23 13:36:57;;;;;;;5.80;5.22;;;18.60;63.90;;;;;;5110543;28;20083;-53
2022/04/23 13:39:41;;;;;;;5.47;4.97;;;18.80;63.20;;;;;;5109647;28;20038;-50
2022/04/23 13:42:26;;;;;;;5.65;5.03;;;18.90;63.40;;;;;;5110950;28;20112;-51
2022/04/23 13:45:13;;;;;;;5.78;5.18;;;19.30;63.00;;;;;;5110868;28;20101;-56
2022/04/23 13:48:01;;;;;;;7.43;5.20;;;19.30;62.20;;;;;;5111886;28;20386;-55
2022/04/23 13:50:46;;;;;;;5.60;5.10;;;19.00;62.20;;;;;;5109039;28;20540;-55
2022/04/23 13:53:31;;;;;;;;;;;19.00;62.00;;;;;;5110071;28;20062;-58
2022/04/23 13:56:15;;;;;;;6.68;4.75;;;18.70;62.00;;;;;;5108961;28;20004;-53
2022/04/23 13:58:59;;;;;;;5.32;4.82;;;18.70;62.00;;;;;;5110901;28;20034;-53
2022/04/23 14:10:57;;;;;;;5.03;4.53;;;19.10;61.80;;;;;;5116158;28;20031;-53
2022/04/23 14:13:41;;;;;;;5.45;4.95;;;19.20;60.40;;;;;;5110297;28;20065;-51
2022/04/23 14:16:25;;;;;;;5.75;5.25;;;19.30;60.70;;;;;;5114452;27;20522;-49
2022/04/23 14:19:10;;;;;;;5.60;4.85;;;19.50;60.40;;;;;;5104213;28;20123;-52
2022/04/23 14:21:54;;;;;;;;;;;19.40;59.40;;;;;;5095329;28;20113;-53
2022/04/23 14:24:39;;;;;;;5.72;5.13;;;19.40;59.70;;;;;;5107611;28;20271;-52
2022/04/23 14:27:23;;;;;;;6.03;5.43;;;19.40;59.00;;;;;;5115165;28;20071;-51
2022/04/23 14:30:08;;;;;;;6.13;5.30;;;19.50;60.20;;;;;;5098646;28;20047;-55
2022/04/23 14:32:53;;;;;;;5.82;5.32;;;19.70;60.00;;;;;;5079611;28;20098;-54
2022/04/23 14:35:37;;;;;;;6.50;5.80;;;19.60;60.20;;;;;;5114298;28;20034;-52
2022/04/23 14:38:22;;;;;;;;;;;19.60;59.60;;;;;;5114646;28;20452;-54
2022/04/23 14:41:06;;;;;;;5.80;5.30;;;19.60;59.20;;;;;;5094672;28;19919;-53
2022/04/23 14:43:50;;;;;;;6.20;5.60;;;19.80;60.00;;;;;;5101779;28;20043;-53
2022/04/23 14:46:34;;;;;;;;;;;20.10;58.70;;;;;;5094321;28;20047;-55
2022/04/23 14:49:19;;;;;;;5.38;4.88;;;19.70;58.40;;;;;;5101207;28;19918;-55
2022/04/23 14:55:07;;;;;;;5.65;4.88;;;20.20;57.60;;;;;;5099884;28;20030;-53
2022/04/23 14:57:51;;;;;;;;;;;20.40;57.90;;;;;;5094150;28;20035;-54
2022/04/23 15:00:36;;;;;;;6.00;5.40;;;20.60;57.40;;;;;;5112173;27;20011;-53
2022/04/23 15:03:20;;;;;;;5.82;5.22;;;20.60;58.40;;;;;;5113281;28;20173;-56
2022/04/23 15:06:04;;;;;;;6.32;5.20;;;20.70;57.50;;;;;;5089344;28;20394;-55